Nicole Leigh Reinauer — WCZ5696 — position and weather

sailwx.info

Track history (hours):
 
Tides and Currents Weather Stations Pressure Air Temp Water Temp Dewpoint Dewpoint Depression Visibility Wind Speed Wind Dir Waves Ship Positions

Nicole Leigh Reinauer

Owner: H A REINAUER INC, STATEN ISLAND, NY. More information available from US FCC via Universal Licensing System and Coast Guard Vessel Documentation Center.

Last reported at 2018-Feb-25 11:39 UTC. Time now 2018-Feb-25 19:43 UTC.
Position N 42°10' W 070°33'.

Length 167 m; draft 7.6 m.

Type: Tanker. MMSI: 366774330.

Date/timePositionNaut miles runAvg speedWind from/ knotsBaromVisibWave heightAir tempDewpointWater temp
2018-Feb-25 11:39N 42°10' W 070°33'1 9.6
2018-Feb-25 11:30N 42°11' W 070°34'5 9.7
2018-Feb-25 11:00N 42°15' W 070°38'611.1
2018-Feb-25 10:30N 42°19' W 070°43'611.0
2018-Feb-25 10:00N 42°22' W 070°50'5 9.3
2018-Feb-25 09:30N 42°22' W 070°56'4 8.6
2018-Feb-25 09:00N 42°21' W 071°02'2 4.3
2018-Feb-25 08:31N 42°23' W 071°01'1 1.5
2018-Feb-25 07:59N 42°24' W 071°01'0 0.0
2018-Feb-25 07:26N 42°24' W 071°01'0 0.0
2018-Feb-25 06:51N 42°24' W 071°01'0 0.0
2018-Feb-25 06:18N 42°24' W 071°01'0 0.0
2018-Feb-25 05:54N 42°24' W 071°01'0 0.0
2018-Feb-25 05:26N 42°24' W 071°01'0 0.0
2018-Feb-25 04:59N 42°24' W 071°01'0 0.0
2018-Feb-25 04:30N 42°24' W 071°01'0 0.0
2018-Feb-25 03:24N 42°24' W 071°01'0 0.0
2018-Feb-25 03:00N 42°24' W 071°01'0 0.0
2018-Feb-25 02:23N 42°24' W 071°01'0 0.0
2018-Feb-25 01:45N 42°24' W 071°01'0 0.0
2018-Feb-25 01:14N 42°24' W 071°01'0 0.0
2018-Feb-25 00:56N 42°24' W 071°01'0 0.0
2018-Feb-25 00:09N 42°24' W 071°01'0 0.0
2018-Feb-24 23:56N 42°24' W 071°01'0 0.0
2018-Feb-24 23:27N 42°24' W 071°01'0 0.0
2018-Feb-24 23:00N 42°24' W 071°01'0 0.0
2018-Feb-24 22:30N 42°24' W 071°01'0 0.0
2018-Feb-24 21:57N 42°24' W 071°01'0 0.0
2018-Feb-24 21:29N 42°24' W 071°01'0 0.0
2018-Feb-24 21:00N 42°24' W 071°01'0 0.0
2018-Feb-24 20:24N 42°24' W 071°01'0 0.0
2018-Feb-24 19:59N 42°24' W 071°01'0 0.0
2018-Feb-24 19:29N 42°24' W 071°01'0 0.0
2018-Feb-24 19:00N 42°24' W 071°01'0 0.0
2018-Feb-24 18:27N 42°24' W 071°01'0 0.0
2018-Feb-24 17:56N 42°24' W 071°01'0 0.0
2018-Feb-24 17:29N 42°24' W 071°01'0 0.0
2018-Feb-24 17:00N 42°24' W 071°01'0 0.0
2018-Feb-24 16:27N 42°24' W 071°01'0 0.0
2018-Feb-24 15:56N 42°24' W 071°01'0 0.0
2018-Feb-24 15:20N 42°24' W 071°01'0 0.0
2018-Feb-24 14:45N 42°24' W 071°01'0 0.0
2018-Feb-24 14:26N 42°24' W 071°01'0 0.0
2018-Feb-24 13:57N 42°24' W 071°01'0 0.0
2018-Feb-24 13:27N 42°24' W 071°01'0 0.0
2018-Feb-24 12:56N 42°24' W 071°01'0 0.0
2018-Feb-24 12:27N 42°24' W 071°01'0 0.0
2018-Feb-24 11:56N 42°24' W 071°01'0 0.0
2018-Feb-24 11:27N 42°24' W 071°01'0 0.0
2018-Feb-24 11:00N 42°24' W 071°01'0 0.0
2018-Feb-24 10:26N 42°24' W 071°01'0 0.0
2018-Feb-24 10:00N 42°24' W 071°01'0 0.0
2018-Feb-24 09:27N 42°24' W 071°01'0 0.1
2018-Feb-24 09:00N 42°24' W 071°01'1 3.0
2018-Feb-24 08:30N 42°23' W 071°03'2 3.0
2018-Feb-24 07:59N 42°22' W 071°02'0 0.0
2018-Feb-24 07:30N 42°22' W 071°02'0 0.0
2018-Feb-24 07:00N 42°22' W 071°02'0 0.0
2018-Feb-24 06:30N 42°22' W 071°02'0 0.1
2018-Feb-24 06:00N 42°22' W 071°02'0 0.1
2018-Feb-24 05:30N 42°22' W 071°02'0 0.1
2018-Feb-24 05:00N 42°22' W 071°02'0 0.0
2018-Feb-24 04:29N 42°22' W 071°02'0 0.1
2018-Feb-24 04:00N 42°22' W 071°02'0 0.1
2018-Feb-24 03:30N 42°22' W 071°02'0 0.1
2018-Feb-24 03:00N 42°21' W 071°02'0 0.0
2018-Feb-24 02:30N 42°22' W 071°02'0 0.0
2018-Feb-24 02:00N 42°22' W 071°02'0 0.0
2018-Feb-24 01:29N 42°22' W 071°02'0 0.1
2018-Feb-24 00:59N 42°22' W 071°02'0 0.1
2018-Feb-24 00:29N 42°22' W 071°02'0 0.1
2018-Feb-23 23:58N 42°22' W 071°02'0 0.0
2018-Feb-23 23:28N 42°22' W 071°02'0 0.1
2018-Feb-23 22:59N 42°22' W 071°02'0 0.1
2018-Feb-23 22:29N 42°22' W 071°02'0 0.0
2018-Feb-23 21:59N 42°22' W 071°02'0 0.1
2018-Feb-23 21:29N 42°22' W 071°02'0 0.0
2018-Feb-23 20:59N 42°22' W 071°02'0 0.0
2018-Feb-23 20:29N 42°22' W 071°02'0 0.1
2018-Feb-23 19:59N 42°22' W 071°02'0 0.0
2018-Feb-23 19:28N 42°22' W 071°02'0 0.0
2018-Feb-23 18:59N 42°22' W 071°02'0 0.0
2018-Feb-23 18:28N 42°22' W 071°02'0 0.0
2018-Feb-23 17:59N 42°22' W 071°02'0 0.0
2018-Feb-23 17:29N 42°22' W 071°02'0 0.0
2018-Feb-23 16:59N 42°22' W 071°02'0 0.0
2018-Feb-23 16:28N 42°22' W 071°02'0 0.1
2018-Feb-23 15:59N 42°22' W 071°02'0 0.3
2018-Feb-23 15:29N 42°21' W 071°02'0 0.1
2018-Feb-23 14:58N 42°21' W 071°02'0 0.0
2018-Feb-23 14:28N 42°21' W 071°02'0 0.0
2018-Feb-23 13:59N 42°21' W 071°02'0 0.1
2018-Feb-23 13:28N 42°21' W 071°02'0 0.0
2018-Feb-23 12:59N 42°21' W 071°02'0 0.0
2018-Feb-23 12:29N 42°21' W 071°02'0 0.0
2018-Feb-23 11:59N 42°21' W 071°02'0 0.0
2018-Feb-23 11:29N 42°21' W 071°02'0 0.0
2018-Feb-23 10:59N 42°21' W 071°02'0 0.1
2018-Feb-23 10:28N 42°21' W 071°02'0 0.1
2018-Feb-23 09:59N 42°21' W 071°02'0 0.0
2018-Feb-23 09:29N 42°21' W 071°02'0 0.0
2018-Feb-23 08:59N 42°21' W 071°02'0 0.0
2018-Feb-23 08:29N 42°21' W 071°02'0 0.2
2018-Feb-23 07:59N 42°22' W 071°02'0 0.1
2018-Feb-23 07:28N 42°22' W 071°02'0 0.0
2018-Feb-23 06:58N 42°22' W 071°02'0 0.1
2018-Feb-23 06:29N 42°22' W 071°02'0 0.1
2018-Feb-23 05:59N 42°22' W 071°02'0 0.1
2018-Feb-23 05:28N 42°22' W 071°02'0 0.1
2018-Feb-23 04:58N 42°22' W 071°02'0 0.0
2018-Feb-23 04:28N 42°22' W 071°02'0 0.0
2018-Feb-23 03:59N 42°22' W 071°02'0 0.0
2018-Feb-23 03:29N 42°21' W 071°02'0 0.0
2018-Feb-23 02:59N 42°21' W 071°02'0 0.0
2018-Feb-23 02:29N 42°21' W 071°02'0 0.0
2018-Feb-23 01:58N 42°21' W 071°02'0 0.0
2018-Feb-23 01:28N 42°21' W 071°02'0 0.0
2018-Feb-23 00:58N 42°21' W 071°02'0 0.1
2018-Feb-23 00:29N 42°22' W 071°02'0 0.0
2018-Feb-22 23:58N 42°22' W 071°02'0 0.0
2018-Feb-22 23:29N 42°21' W 071°02'0 0.1
2018-Feb-22 22:58N 42°21' W 071°02'1 2.6
2018-Feb-22 22:30N 42°21' W 071°01'5 9.2
2018-Feb-22 22:00N 42°22' W 070°55'5 9.9
2018-Feb-22 21:30N 42°22' W 070°48'611.5
2018-Feb-22 21:00N 42°18' W 070°42'611.4
2018-Feb-22 20:30N 42°14' W 070°36'510.2
2018-Feb-22 20:01N 42°11' W 070°32'5 9.1
2018-Feb-22 19:30N 42°06' W 070°30'91 4.0
2018-Feb-21 21:03N 41°14' W 072°09'012.4
2018-Feb-21 21:00N 41°14' W 072°10'612.4
2018-Feb-21 20:29N 41°12' W 072°18'611.9
2018-Feb-21 20:01N 41°10' W 072°25'611.2
2018-Feb-21 19:31N 41°09' W 072°32'611.3
2018-Feb-21 19:01N 41°07' W 072°39'611.1
2018-Feb-21 18:30N 41°06' W 072°46'4511.2
2018-Feb-21 14:31N 40°53' W 073°43'112.1
2018-Feb-21 14:26N 40°52' W 073°44'511.4
2018-Feb-21 14:00N 40°48' W 073°48'611.4
2018-Feb-21 13:30N 40°47' W 073°55'510.2
2018-Feb-21 13:01N 40°43' W 073°58'4 7.0
2018-Feb-21 12:31N 40°40' W 074°02'0 0.3
2018-Feb-21 12:01N 40°40' W 074°02'0 0.5
2018-Feb-21 11:31N 40°40' W 074°02'2 4.4
2018-Feb-21 11:01N 40°39' W 074°05'0 0.6
2018-Feb-21 10:30N 40°39' W 074°05'0 0.0
2018-Feb-21 09:51N 40°39' W 074°05'0 0.0
2018-Feb-21 09:27N 40°39' W 074°05'0 0.0
2018-Feb-21 09:00N 40°39' W 074°05'0 0.0
2018-Feb-21 07:24N 40°39' W 074°05'0 0.0
2018-Feb-21 06:15N 40°39' W 074°05'0 0.0
2018-Feb-21 05:57N 40°39' W 074°05'0 0.0
2018-Feb-21 05:09N 40°39' W 074°05'0 0.0
2018-Feb-21 04:51N 40°39' W 074°05'0 0.0
2018-Feb-21 04:21N 40°39' W 074°05'0 0.0
2018-Feb-21 03:51N 40°39' W 074°05'0 0.0
2018-Feb-21 02:45N 40°39' W 074°05'0 0.0
2018-Feb-21 00:33N 40°39' W 074°05'0 0.0
2018-Feb-20 22:54N 40°39' W 074°05'0 0.0
2018-Feb-20 22:27N 40°39' W 074°05'0 0.0
2018-Feb-20 17:09N 40°39' W 074°05'0 0.0
2018-Feb-20 16:45N 40°39' W 074°05'0 0.0
2018-Feb-20 16:15N 40°39' W 074°05'0 0.0
2018-Feb-20 14:51N 40°39' W 074°05'0 0.0
2018-Feb-20 11:48N 40°39' W 074°05'0 0.0
2018-Feb-20 09:18N 40°39' W 074°05'0 0.0
2018-Feb-20 07:06N 40°39' W 074°05'0 4.0
2018-Feb-20 06:59N 40°39' W 074°05'2 3.6
2018-Feb-20 06:29N 40°38' W 074°08'0 0.0
2018-Feb-20 05:50N 40°38' W 074°08'0 0.6
2018-Feb-20 05:30N 40°39' W 074°08'2 0.6
2018-Feb-20 02:07N 40°39' W 074°05'0 0.1
2018-Feb-20 01:31N 40°39' W 074°05'0 0.1
2018-Feb-20 01:22N 40°39' W 074°05'0 0.0
2018-Feb-20 00:58N 40°39' W 074°05'0 0.0
2018-Feb-20 00:28N 40°39' W 074°05'0 0.0
2018-Feb-19 23:52N 40°39' W 074°05'0 0.0
2018-Feb-19 23:25N 40°39' W 074°05'0 0.0
2018-Feb-19 22:49N 40°39' W 074°05'0 0.0
2018-Feb-19 22:25N 40°39' W 074°05'0 0.0
2018-Feb-19 21:58N 40°39' W 074°05'0 0.0
2018-Feb-19 21:25N 40°39' W 074°05'0 0.0
2018-Feb-19 20:58N 40°39' W 074°05'0 0.0
2018-Feb-19 20:16N 40°39' W 074°05'0 0.0
2018-Feb-19 19:58N 40°39' W 074°05'0 0.0
2018-Feb-19 19:25N 40°39' W 074°05'0 0.0
2018-Feb-19 18:58N 40°39' W 074°05'0 0.0
2018-Feb-19 18:28N 40°39' W 074°05'0 0.0
2018-Feb-19 17:58N 40°39' W 074°05'0 0.0
2018-Feb-19 16:40N 40°39' W 074°05'0 0.0
2018-Feb-19 15:34N 40°39' W 074°05'0 0.0
2018-Feb-19 15:07N 40°39' W 074°05'0 0.0
2018-Feb-19 14:52N 40°39' W 074°05'0 0.0
2018-Feb-19 14:10N 40°39' W 074°05'0 0.0
2018-Feb-19 13:43N 40°39' W 074°05'0 0.0
2018-Feb-19 13:28N 40°39' W 074°05'0 0.0
2018-Feb-19 12:52N 40°39' W 074°05'0 0.0
2018-Feb-19 12:22N 40°39' W 074°05'0 0.0
2018-Feb-19 11:55N 40°39' W 074°05'0 0.0
2018-Feb-19 11:25N 40°39' W 074°05'0 0.0
2018-Feb-19 10:52N 40°39' W 074°05'0 0.0
2018-Feb-19 10:28N 40°39' W 074°05'0 0.0
2018-Feb-19 09:52N 40°39' W 074°05'0 0.0
2018-Feb-19 09:28N 40°39' W 074°05'0 0.0
2018-Feb-19 09:00N 40°39' W 074°05'1 2.7
2018-Feb-19 08:30N 40°39' W 074°03'4 7.4
2018-Feb-19 08:00N 40°43' W 074°01'5 9.5
2018-Feb-19 07:30N 40°47' W 073°59'510.5
2018-Feb-19 07:00N 40°52' W 073°56'4 8.4
2018-Feb-19 06:30N 40°56' W 073°55'0 0.1
2018-Feb-19 06:00N 40°56' W 073°55'0 0.1
2018-Feb-19 05:31N 40°56' W 073°55'0 0.0
2018-Feb-19 04:57N 40°56' W 073°55'0 0.0
2018-Feb-19 04:27N 40°56' W 073°55'0 0.0
2018-Feb-19 03:51N 40°56' W 073°55'0 0.0
2018-Feb-19 03:30N 40°56' W 073°55'0 0.0
2018-Feb-19 02:57N 40°56' W 073°55'0 0.0
2018-Feb-19 02:21N 40°56' W 073°55'0 0.0
2018-Feb-19 01:58N 40°56' W 073°55'0 0.0
2018-Feb-19 01:31N 40°56' W 073°55'0 0.2
2018-Feb-19 01:00N 40°56' W 073°55'0 0.3
2018-Feb-19 00:27N 40°56' W 073°55'0 0.1
2018-Feb-18 23:57N 40°56' W 073°55'0 0.0
2018-Feb-18 23:30N 40°56' W 073°55'0 0.0
2018-Feb-18 22:51N 40°56' W 073°55'0 0.0
2018-Feb-18 22:10N 40°56' W 073°55'0 0.0
2018-Feb-18 21:54N 40°56' W 073°55'0 0.0
2018-Feb-18 21:24N 40°56' W 073°55'0 0.0
2018-Feb-18 21:00N 40°56' W 073°55'0 0.0
2018-Feb-18 20:30N 40°56' W 073°55'0 0.0
2018-Feb-18 20:00N 40°56' W 073°55'0 0.0
2018-Feb-18 19:31N 40°56' W 073°55'0 0.0
2018-Feb-18 18:54N 40°56' W 073°55'0 0.2
2018-Feb-18 18:31N 40°56' W 073°55'0 0.3
2018-Feb-18 17:57N 40°56' W 073°55'0 0.1
2018-Feb-18 17:30N 40°56' W 073°55'0 0.0
2018-Feb-18 17:00N 40°56' W 073°55'0 0.0
2018-Feb-18 16:27N 40°56' W 073°55'0 0.0
2018-Feb-18 16:00N 40°56' W 073°55'0 0.1
2018-Feb-18 15:27N 40°56' W 073°55'0 0.2
2018-Feb-18 15:00N 40°56' W 073°55'0 0.2
2018-Feb-18 14:27N 40°56' W 073°55'0 0.1
2018-Feb-18 13:42N 40°56' W 073°55'0 0.0
2018-Feb-18 13:30N 40°56' W 073°55'0 0.1
2018-Feb-18 12:57N 40°56' W 073°55'0 0.0
2018-Feb-18 12:30N 40°56' W 073°55'0 0.1
2018-Feb-18 11:57N 40°56' W 073°55'0 0.0
2018-Feb-18 11:30N 40°56' W 073°55'0 0.0
2018-Feb-18 11:00N 40°56' W 073°55'0 0.0
2018-Feb-18 10:30N 40°56' W 073°55'0 0.0
2018-Feb-18 09:45N 40°56' W 073°55'0 0.1
2018-Feb-18 09:30N 40°56' W 073°55'0 0.0
2018-Feb-18 09:00N 40°56' W 073°55'0 0.0
2018-Feb-18 08:30N 40°56' W 073°55'0 0.0
2018-Feb-18 07:45N 40°56' W 073°55'0 0.0
2018-Feb-18 07:27N 40°56' W 073°55'0 0.0
2018-Feb-18 06:54N 40°56' W 073°55'0 0.3
2018-Feb-18 06:30N 40°56' W 073°55'0 0.3
2018-Feb-18 06:00N 40°56' W 073°55'0 0.1
2018-Feb-18 05:30N 40°56' W 073°55'0 0.1
2018-Feb-18 04:57N 40°56' W 073°55'0 0.1
2018-Feb-18 04:27N 40°56' W 073°55'0 0.0
2018-Feb-18 04:00N 40°56' W 073°55'0 0.0
2018-Feb-18 03:30N 40°56' W 073°55'0 0.0
2018-Feb-18 02:51N 40°56' W 073°55'0 0.0
2018-Feb-18 02:21N 40°56' W 073°55'0 0.0
2018-Feb-18 02:00N 40°56' W 073°55'0 0.0
2018-Feb-18 01:30N 40°56' W 073°55'0 0.1
2018-Feb-18 00:51N 40°56' W 073°55'0 0.3
2018-Feb-18 00:30N 40°56' W 073°55'0 0.2
2018-Feb-17 23:54N 40°56' W 073°55'0 0.1
2018-Feb-17 23:27N 40°56' W 073°55'0 0.0
2018-Feb-17 22:54N 40°56' W 073°55'0 0.0
2018-Feb-17 22:30N 40°56' W 073°55'0 0.0
2018-Feb-17 22:00N 40°56' W 073°55'0 0.0
2018-Feb-17 21:24N 40°56' W 073°55'0 0.1
2018-Feb-17 21:00N 40°56' W 073°55'0 0.0
2018-Feb-17 20:30N 40°56' W 073°55'0 0.0
2018-Feb-17 20:00N 40°56' W 073°55'0 0.0
2018-Feb-17 19:27N 40°56' W 073°55'0 0.2
2018-Feb-17 18:42N 40°56' W 073°55'0 0.4
2018-Feb-17 18:27N 40°56' W 073°55'0 0.3
2018-Feb-17 17:51N 40°56' W 073°55'0 0.0
2018-Feb-17 17:24N 40°56' W 073°55'0 0.1
2018-Feb-17 16:57N 40°56' W 073°55'0 0.0
2018-Feb-17 16:27N 40°56' W 073°55'0 0.0
2018-Feb-17 15:54N 40°56' W 073°55'0 0.0
2018-Feb-17 15:30N 40°56' W 073°55'0 0.0
2018-Feb-17 15:00N 40°56' W 073°55'0 0.2
2018-Feb-17 14:24N 40°56' W 073°55'0 0.2
2018-Feb-17 13:51N 40°56' W 073°55'0 0.0
2018-Feb-17 13:30N 40°56' W 073°55'0 0.0
2018-Feb-17 12:57N 40°56' W 073°55'0 0.2
2018-Feb-17 12:27N 40°56' W 073°55'0 0.3
2018-Feb-17 11:39N 40°56' W 073°55'0 0.1
2018-Feb-17 11:27N 40°56' W 073°55'0 0.0
2018-Feb-17 11:00N 40°56' W 073°55'0 0.0
2018-Feb-17 10:30N 40°56' W 073°55'0 0.0
2018-Feb-17 10:00N 40°56' W 073°55'0 0.0
2018-Feb-17 09:30N 40°56' W 073°55'0 0.1
2018-Feb-17 09:00N 40°56' W 073°55'0 0.0
2018-Feb-17 08:30N 40°56' W 073°55'0 0.0
2018-Feb-17 08:00N 40°56' W 073°55'0 0.0
2018-Feb-17 07:29N 40°56' W 073°55'0 0.0
2018-Feb-17 07:00N 40°56' W 073°55'0 0.0
2018-Feb-17 06:28N 40°56' W 073°55'0 0.0
2018-Feb-17 06:00N 40°56' W 073°55'0 0.0
2018-Feb-17 05:30N 40°56' W 073°55'0 0.0
2018-Feb-17 05:00N 40°56' W 073°55'0 0.3
2018-Feb-17 04:30N 40°56' W 073°55'0 0.2
2018-Feb-17 03:59N 40°56' W 073°55'0 0.1
2018-Feb-17 03:29N 40°56' W 073°55'0 0.0
2018-Feb-17 02:58N 40°56' W 073°55'0 0.1
2018-Feb-17 02:30N 40°56' W 073°55'0 0.1
2018-Feb-17 01:58N 40°56' W 073°55'0 0.2
2018-Feb-17 01:30N 40°56' W 073°55'0 0.5
2018-Feb-17 00:59N 40°56' W 073°55'4 7.4
2018-Feb-17 00:30N 40°52' W 073°56'611.5
2018-Feb-16 23:58N 40°47' W 073°60'510.9
2018-Feb-16 23:30N 40°42' W 074°02'4 8.4
2018-Feb-16 23:00N 40°39' W 074°05'5 9.3
2018-Feb-16 22:30N 40°38' W 074°11'4 7.9
2018-Feb-16 22:00N 40°35' W 074°13'3 0.1
2018-Feb-16 02:35N 40°33' W 074°15'0 0.0
2018-Feb-16 02:30N 40°33' W 074°15'1 1.8
2018-Feb-16 01:56N 40°33' W 074°14'3 7.1
2018-Feb-16 01:30N 40°36' W 074°12'3 5.9
2018-Feb-16 01:00N 40°39' W 074°11'3 6.1
2018-Feb-16 00:30N 40°39' W 074°07'3 5.3
2018-Feb-16 00:00N 40°38' W 074°03'1 1.9
2018-Feb-15 23:30N 40°37' W 074°03'0 0.1
2018-Feb-15 23:00N 40°37' W 074°03'0 0.2
2018-Feb-15 22:30N 40°37' W 074°03'0 0.3
2018-Feb-15 22:00N 40°37' W 074°03'0 0.1
2018-Feb-15 21:00N 40°37' W 074°03'0 0.0
2018-Feb-15 20:30N 40°37' W 074°03'0 0.0
2018-Feb-15 20:00N 40°37' W 074°03'0 0.1
2018-Feb-15 19:30N 40°37' W 074°03'0 0.1
2018-Feb-15 19:00N 40°37' W 074°03'0 0.0
2018-Feb-15 18:30N 40°37' W 074°03'0 0.0
2018-Feb-15 18:00N 40°37' W 074°03'0 0.0
2018-Feb-15 17:30N 40°37' W 074°03'0 0.0
2018-Feb-15 17:00N 40°37' W 074°03'0 0.0
2018-Feb-15 16:30N 40°37' W 074°03'0 0.0
2018-Feb-15 16:00N 40°37' W 074°03'0 0.0
2018-Feb-15 15:30N 40°37' W 074°03'0 0.3
2018-Feb-15 15:00N 40°37' W 074°03'0 0.2
2018-Feb-15 14:30N 40°37' W 074°03'0 0.0
2018-Feb-15 14:00N 40°37' W 074°03'0 0.1
2018-Feb-15 13:30N 40°37' W 074°03'0 0.0
2018-Feb-15 13:00N 40°37' W 074°03'0 0.0
2018-Feb-15 12:30N 40°37' W 074°03'0 0.0
2018-Feb-15 12:00N 40°37' W 074°03'  
Track history (hours):
 
Tides and Currents Weather Stations Pressure Air Temp Water Temp Dewpoint Dewpoint Depression Visibility Wind Speed Wind Dir Waves Ship Positions

Nicole Leigh Reinauer

Owner: H A REINAUER INC, STATEN ISLAND, NY. More information available from US FCC via Universal Licensing System and Coast Guard Vessel Documentation Center.

Last reported at 2018-Feb-25 11:39 UTC. Time now 2018-Feb-25 19:43 UTC.
Position N 42°10' W 070°33'.

Length 167 m; draft 7.6 m.

Type: Tanker. MMSI: 366774330.

Date/timePositionNaut miles runAvg speedWind from/ knotsBaromVisibWave heightAir tempDewpointWater temp
2018-Feb-25 11:39N 42°10' W 070°33'1 9.6
2018-Feb-25 11:30N 42°11' W 070°34'5 9.7
2018-Feb-25 11:00N 42°15' W 070°38'611.1
2018-Feb-25 10:30N 42°19' W 070°43'611.0
2018-Feb-25 10:00N 42°22' W 070°50'5 9.3
2018-Feb-25 09:30N 42°22' W 070°56'4 8.6
2018-Feb-25 09:00N 42°21' W 071°02'2 4.3
2018-Feb-25 08:31N 42°23' W 071°01'1 1.5
2018-Feb-25 07:59N 42°24' W 071°01'0 0.0
2018-Feb-25 07:26N 42°24' W 071°01'0 0.0
2018-Feb-25 06:51N 42°24' W 071°01'0 0.0
2018-Feb-25 06:18N 42°24' W 071°01'0 0.0
2018-Feb-25 05:54N 42°24' W 071°01'0 0.0
2018-Feb-25 05:26N 42°24' W 071°01'0 0.0
2018-Feb-25 04:59N 42°24' W 071°01'0 0.0
2018-Feb-25 04:30N 42°24' W 071°01'0 0.0
2018-Feb-25 03:24N 42°24' W 071°01'0 0.0
2018-Feb-25 03:00N 42°24' W 071°01'0 0.0
2018-Feb-25 02:23N 42°24' W 071°01'0 0.0
2018-Feb-25 01:45N 42°24' W 071°01'0 0.0
2018-Feb-25 01:14N 42°24' W 071°01'0 0.0
2018-Feb-25 00:56N 42°24' W 071°01'0 0.0
2018-Feb-25 00:09N 42°24' W 071°01'0 0.0
2018-Feb-24 23:56N 42°24' W 071°01'0 0.0
2018-Feb-24 23:27N 42°24' W 071°01'0 0.0
2018-Feb-24 23:00N 42°24' W 071°01'0 0.0
2018-Feb-24 22:30N 42°24' W 071°01'0 0.0
2018-Feb-24 21:57N 42°24' W 071°01'0 0.0
2018-Feb-24 21:29N 42°24' W 071°01'0 0.0
2018-Feb-24 21:00N 42°24' W 071°01'0 0.0
2018-Feb-24 20:24N 42°24' W 071°01'0 0.0
2018-Feb-24 19:59N 42°24' W 071°01'0 0.0
2018-Feb-24 19:29N 42°24' W 071°01'0 0.0
2018-Feb-24 19:00N 42°24' W 071°01'0 0.0
2018-Feb-24 18:27N 42°24' W 071°01'0 0.0
2018-Feb-24 17:56N 42°24' W 071°01'0 0.0
2018-Feb-24 17:29N 42°24' W 071°01'0 0.0
2018-Feb-24 17:00N 42°24' W 071°01'0 0.0
2018-Feb-24 16:27N 42°24' W 071°01'0 0.0
2018-Feb-24 15:56N 42°24' W 071°01'0 0.0
2018-Feb-24 15:20N 42°24' W 071°01'0 0.0
2018-Feb-24 14:45N 42°24' W 071°01'0 0.0
2018-Feb-24 14:26N 42°24' W 071°01'0 0.0
2018-Feb-24 13:57N 42°24' W 071°01'0 0.0
2018-Feb-24 13:27N 42°24' W 071°01'0 0.0
2018-Feb-24 12:56N 42°24' W 071°01'0 0.0
2018-Feb-24 12:27N 42°24' W 071°01'0 0.0
2018-Feb-24 11:56N 42°24' W 071°01'0 0.0
2018-Feb-24 11:27N 42°24' W 071°01'0 0.0
2018-Feb-24 11:00N 42°24' W 071°01'0 0.0
2018-Feb-24 10:26N 42°24' W 071°01'0 0.0
2018-Feb-24 10:00N 42°24' W 071°01'0 0.0
2018-Feb-24 09:27N 42°24' W 071°01'0 0.1
2018-Feb-24 09:00N 42°24' W 071°01'1 3.0
2018-Feb-24 08:30N 42°23' W 071°03'2 3.0
2018-Feb-24 07:59N 42°22' W 071°02'0 0.0
2018-Feb-24 07:30N 42°22' W 071°02'0 0.0
2018-Feb-24 07:00N 42°22' W 071°02'0 0.0
2018-Feb-24 06:30N 42°22' W 071°02'0 0.1
2018-Feb-24 06:00N 42°22' W 071°02'0 0.1
2018-Feb-24 05:30N 42°22' W 071°02'0 0.1
2018-Feb-24 05:00N 42°22' W 071°02'0 0.0
2018-Feb-24 04:29N 42°22' W 071°02'0 0.1
2018-Feb-24 04:00N 42°22' W 071°02'0 0.1
2018-Feb-24 03:30N 42°22' W 071°02'0 0.1
2018-Feb-24 03:00N 42°21' W 071°02'0 0.0
2018-Feb-24 02:30N 42°22' W 071°02'0 0.0
2018-Feb-24 02:00N 42°22' W 071°02'0 0.0
2018-Feb-24 01:29N 42°22' W 071°02'0 0.1
2018-Feb-24 00:59N 42°22' W 071°02'0 0.1
2018-Feb-24 00:29N 42°22' W 071°02'0 0.1
2018-Feb-23 23:58N 42°22' W 071°02'0 0.0
2018-Feb-23 23:28N 42°22' W 071°02'0 0.1
2018-Feb-23 22:59N 42°22' W 071°02'0 0.1
2018-Feb-23 22:29N 42°22' W 071°02'0 0.0
2018-Feb-23 21:59N 42°22' W 071°02'0 0.1
2018-Feb-23 21:29N 42°22' W 071°02'0 0.0
2018-Feb-23 20:59N 42°22' W 071°02'0 0.0
2018-Feb-23 20:29N 42°22' W 071°02'0 0.1
2018-Feb-23 19:59N 42°22' W 071°02'0 0.0
2018-Feb-23 19:28N 42°22' W 071°02'0 0.0
2018-Feb-23 18:59N 42°22' W 071°02'0 0.0
2018-Feb-23 18:28N 42°22' W 071°02'0 0.0
2018-Feb-23 17:59N 42°22' W 071°02'0 0.0
2018-Feb-23 17:29N 42°22' W 071°02'0 0.0
2018-Feb-23 16:59N 42°22' W 071°02'0 0.0
2018-Feb-23 16:28N 42°22' W 071°02'0 0.1
2018-Feb-23 15:59N 42°22' W 071°02'0 0.3
2018-Feb-23 15:29N 42°21' W 071°02'0 0.1
2018-Feb-23 14:58N 42°21' W 071°02'0 0.0
2018-Feb-23 14:28N 42°21' W 071°02'0 0.0
2018-Feb-23 13:59N 42°21' W 071°02'0 0.1
2018-Feb-23 13:28N 42°21' W 071°02'0 0.0
2018-Feb-23 12:59N 42°21' W 071°02'0 0.0
2018-Feb-23 12:29N 42°21' W 071°02'0 0.0
2018-Feb-23 11:59N 42°21' W 071°02'0 0.0
2018-Feb-23 11:29N 42°21' W 071°02'0 0.0
2018-Feb-23 10:59N 42°21' W 071°02'0 0.1
2018-Feb-23 10:28N 42°21' W 071°02'0 0.1
2018-Feb-23 09:59N 42°21' W 071°02'0 0.0
2018-Feb-23 09:29N 42°21' W 071°02'0 0.0
2018-Feb-23 08:59N 42°21' W 071°02'0 0.0
2018-Feb-23 08:29N 42°21' W 071°02'0 0.2
2018-Feb-23 07:59N 42°22' W 071°02'0 0.1
2018-Feb-23 07:28N 42°22' W 071°02'0 0.0
2018-Feb-23 06:58N 42°22' W 071°02'0 0.1
2018-Feb-23 06:29N 42°22' W 071°02'0 0.1
2018-Feb-23 05:59N 42°22' W 071°02'0 0.1
2018-Feb-23 05:28N 42°22' W 071°02'0 0.1
2018-Feb-23 04:58N 42°22' W 071°02'0 0.0
2018-Feb-23 04:28N 42°22' W 071°02'0 0.0
2018-Feb-23 03:59N 42°22' W 071°02'0 0.0
2018-Feb-23 03:29N 42°21' W 071°02'0 0.0
2018-Feb-23 02:59N 42°21' W 071°02'0 0.0
2018-Feb-23 02:29N 42°21' W 071°02'0 0.0
2018-Feb-23 01:58N 42°21' W 071°02'0 0.0
2018-Feb-23 01:28N 42°21' W 071°02'0 0.0
2018-Feb-23 00:58N 42°21' W 071°02'0 0.1
2018-Feb-23 00:29N 42°22' W 071°02'0 0.0
2018-Feb-22 23:58N 42°22' W 071°02'0 0.0
2018-Feb-22 23:29N 42°21' W 071°02'0 0.1
2018-Feb-22 22:58N 42°21' W 071°02'1 2.6
2018-Feb-22 22:30N 42°21' W 071°01'5 9.2
2018-Feb-22 22:00N 42°22' W 070°55'5 9.9
2018-Feb-22 21:30N 42°22' W 070°48'611.5
2018-Feb-22 21:00N 42°18' W 070°42'611.4
2018-Feb-22 20:30N 42°14' W 070°36'510.2
2018-Feb-22 20:01N 42°11' W 070°32'5 9.1
2018-Feb-22 19:30N 42°06' W 070°30'91 4.0
2018-Feb-21 21:03N 41°14' W 072°09'012.4
2018-Feb-21 21:00N 41°14' W 072°10'612.4
2018-Feb-21 20:29N 41°12' W 072°18'611.9
2018-Feb-21 20:01N 41°10' W 072°25'611.2
2018-Feb-21 19:31N 41°09' W 072°32'611.3
2018-Feb-21 19:01N 41°07' W 072°39'611.1
2018-Feb-21 18:30N 41°06' W 072°46'4511.2
2018-Feb-21 14:31N 40°53' W 073°43'112.1
2018-Feb-21 14:26N 40°52' W 073°44'511.4
2018-Feb-21 14:00N 40°48' W 073°48'611.4
2018-Feb-21 13:30N 40°47' W 073°55'510.2
2018-Feb-21 13:01N 40°43' W 073°58'4 7.0
2018-Feb-21 12:31N 40°40' W 074°02'0 0.3
2018-Feb-21 12:01N 40°40' W 074°02'0 0.5
2018-Feb-21 11:31N 40°40' W 074°02'2 4.4
2018-Feb-21 11:01N 40°39' W 074°05'0 0.6
2018-Feb-21 10:30N 40°39' W 074°05'0 0.0
2018-Feb-21 09:51N 40°39' W 074°05'0 0.0
2018-Feb-21 09:27N 40°39' W 074°05'0 0.0
2018-Feb-21 09:00N 40°39' W 074°05'0 0.0
2018-Feb-21 07:24N 40°39' W 074°05'0 0.0
2018-Feb-21 06:15N 40°39' W 074°05'0 0.0
2018-Feb-21 05:57N 40°39' W 074°05'0 0.0
2018-Feb-21 05:09N 40°39' W 074°05'0 0.0
2018-Feb-21 04:51N 40°39' W 074°05'0 0.0
2018-Feb-21 04:21N 40°39' W 074°05'0 0.0
2018-Feb-21 03:51N 40°39' W 074°05'0 0.0
2018-Feb-21 02:45N 40°39' W 074°05'0 0.0
2018-Feb-21 00:33N 40°39' W 074°05'0 0.0
2018-Feb-20 22:54N 40°39' W 074°05'0 0.0
2018-Feb-20 22:27N 40°39' W 074°05'0 0.0
2018-Feb-20 17:09N 40°39' W 074°05'0 0.0
2018-Feb-20 16:45N 40°39' W 074°05'0 0.0
2018-Feb-20 16:15N 40°39' W 074°05'0 0.0
2018-Feb-20 14:51N 40°39' W 074°05'0 0.0
2018-Feb-20 11:48N 40°39' W 074°05'0 0.0
2018-Feb-20 09:18N 40°39' W 074°05'0 0.0
2018-Feb-20 07:06N 40°39' W 074°05'0 4.0
2018-Feb-20 06:59N 40°39' W 074°05'2 3.6
2018-Feb-20 06:29N 40°38' W 074°08'0 0.0
2018-Feb-20 05:50N 40°38' W 074°08'0 0.6
2018-Feb-20 05:30N 40°39' W 074°08'2 0.6
2018-Feb-20 02:07N 40°39' W 074°05'0 0.1
2018-Feb-20 01:31N 40°39' W 074°05'0 0.1
2018-Feb-20 01:22N 40°39' W 074°05'0 0.0
2018-Feb-20 00:58N 40°39' W 074°05'0 0.0
2018-Feb-20 00:28N 40°39' W 074°05'0 0.0
2018-Feb-19 23:52N 40°39' W 074°05'0 0.0
2018-Feb-19 23:25N 40°39' W 074°05'0 0.0
2018-Feb-19 22:49N 40°39' W 074°05'0 0.0
2018-Feb-19 22:25N 40°39' W 074°05'0 0.0
2018-Feb-19 21:58N 40°39' W 074°05'0 0.0
2018-Feb-19 21:25N 40°39' W 074°05'0 0.0
2018-Feb-19 20:58N 40°39' W 074°05'0 0.0
2018-Feb-19 20:16N 40°39' W 074°05'0 0.0
2018-Feb-19 19:58N 40°39' W 074°05'0 0.0
2018-Feb-19 19:25N 40°39' W 074°05'0 0.0
2018-Feb-19 18:58N 40°39' W 074°05'0 0.0
2018-Feb-19 18:28N 40°39' W 074°05'0 0.0
2018-Feb-19 17:58N 40°39' W 074°05'0 0.0
2018-Feb-19 16:40N 40°39' W 074°05'0 0.0
2018-Feb-19 15:34N 40°39' W 074°05'0 0.0
2018-Feb-19 15:07N 40°39' W 074°05'0 0.0
2018-Feb-19 14:52N 40°39' W 074°05'0 0.0
2018-Feb-19 14:10N 40°39' W 074°05'0 0.0
2018-Feb-19 13:43N 40°39' W 074°05'0 0.0
2018-Feb-19 13:28N 40°39' W 074°05'0 0.0
2018-Feb-19 12:52N 40°39' W 074°05'0 0.0
2018-Feb-19 12:22N 40°39' W 074°05'0 0.0
2018-Feb-19 11:55N 40°39' W 074°05'0 0.0
2018-Feb-19 11:25N 40°39' W 074°05'0 0.0
2018-Feb-19 10:52N 40°39' W 074°05'0 0.0
2018-Feb-19 10:28N 40°39' W 074°05'0 0.0
2018-Feb-19 09:52N 40°39' W 074°05'0 0.0
2018-Feb-19 09:28N 40°39' W 074°05'0 0.0
2018-Feb-19 09:00N 40°39' W 074°05'1 2.7
2018-Feb-19 08:30N 40°39' W 074°03'4 7.4
2018-Feb-19 08:00N 40°43' W 074°01'5 9.5
2018-Feb-19 07:30N 40°47' W 073°59'510.5
2018-Feb-19 07:00N 40°52' W 073°56'4 8.4
2018-Feb-19 06:30N 40°56' W 073°55'0 0.1
2018-Feb-19 06:00N 40°56' W 073°55'0 0.1
2018-Feb-19 05:31N 40°56' W 073°55'0 0.0
2018-Feb-19 04:57N 40°56' W 073°55'0 0.0
2018-Feb-19 04:27N 40°56' W 073°55'0 0.0
2018-Feb-19 03:51N 40°56' W 073°55'0 0.0
2018-Feb-19 03:30N 40°56' W 073°55'0 0.0
2018-Feb-19 02:57N 40°56' W 073°55'0 0.0
2018-Feb-19 02:21N 40°56' W 073°55'0 0.0
2018-Feb-19 01:58N 40°56' W 073°55'0 0.0
2018-Feb-19 01:31N 40°56' W 073°55'0 0.2
2018-Feb-19 01:00N 40°56' W 073°55'0 0.3
2018-Feb-19 00:27N 40°56' W 073°55'0 0.1
2018-Feb-18 23:57N 40°56' W 073°55'0 0.0
2018-Feb-18 23:30N 40°56' W 073°55'0 0.0
2018-Feb-18 22:51N 40°56' W 073°55'0 0.0
2018-Feb-18 22:10N 40°56' W 073°55'0 0.0
2018-Feb-18 21:54N 40°56' W 073°55'0 0.0
2018-Feb-18 21:24N 40°56' W 073°55'0 0.0
2018-Feb-18 21:00N 40°56' W 073°55'0 0.0
2018-Feb-18 20:30N 40°56' W 073°55'0 0.0
2018-Feb-18 20:00N 40°56' W 073°55'0 0.0
2018-Feb-18 19:31N 40°56' W 073°55'0 0.0
2018-Feb-18 18:54N 40°56' W 073°55'0 0.2
2018-Feb-18 18:31N 40°56' W 073°55'0 0.3
2018-Feb-18 17:57N 40°56' W 073°55'0 0.1
2018-Feb-18 17:30N 40°56' W 073°55'0 0.0
2018-Feb-18 17:00N 40°56' W 073°55'0 0.0
2018-Feb-18 16:27N 40°56' W 073°55'0 0.0
2018-Feb-18 16:00N 40°56' W 073°55'0 0.1
2018-Feb-18 15:27N 40°56' W 073°55'0 0.2
2018-Feb-18 15:00N 40°56' W 073°55'0 0.2
2018-Feb-18 14:27N 40°56' W 073°55'0 0.1
2018-Feb-18 13:42N 40°56' W 073°55'0 0.0
2018-Feb-18 13:30N 40°56' W 073°55'0 0.1
2018-Feb-18 12:57N 40°56' W 073°55'0 0.0
2018-Feb-18 12:30N 40°56' W 073°55'0 0.1
2018-Feb-18 11:57N 40°56' W 073°55'0 0.0
2018-Feb-18 11:30N 40°56' W 073°55'0 0.0
2018-Feb-18 11:00N 40°56' W 073°55'0 0.0
2018-Feb-18 10:30N 40°56' W 073°55'0 0.0
2018-Feb-18 09:45N 40°56' W 073°55'0 0.1
2018-Feb-18 09:30N 40°56' W 073°55'0 0.0
2018-Feb-18 09:00N 40°56' W 073°55'0 0.0
2018-Feb-18 08:30N 40°56' W 073°55'0 0.0
2018-Feb-18 07:45N 40°56' W 073°55'0 0.0
2018-Feb-18 07:27N 40°56' W 073°55'0 0.0
2018-Feb-18 06:54N 40°56' W 073°55'0 0.3
2018-Feb-18 06:30N 40°56' W 073°55'0 0.3
2018-Feb-18 06:00N 40°56' W 073°55'0 0.1
2018-Feb-18 05:30N 40°56' W 073°55'0 0.1
2018-Feb-18 04:57N 40°56' W 073°55'0 0.1
2018-Feb-18 04:27N 40°56' W 073°55'0 0.0
2018-Feb-18 04:00N 40°56' W 073°55'0 0.0
2018-Feb-18 03:30N 40°56' W 073°55'0 0.0
2018-Feb-18 02:51N 40°56' W 073°55'0 0.0
2018-Feb-18 02:21N 40°56' W 073°55'0 0.0
2018-Feb-18 02:00N 40°56' W 073°55'0 0.0
2018-Feb-18 01:30N 40°56' W 073°55'0 0.1
2018-Feb-18 00:51N 40°56' W 073°55'0 0.3
2018-Feb-18 00:30N 40°56' W 073°55'0 0.2
2018-Feb-17 23:54N 40°56' W 073°55'0 0.1
2018-Feb-17 23:27N 40°56' W 073°55'0 0.0
2018-Feb-17 22:54N 40°56' W 073°55'0 0.0
2018-Feb-17 22:30N 40°56' W 073°55'0 0.0
2018-Feb-17 22:00N 40°56' W 073°55'0 0.0
2018-Feb-17 21:24N 40°56' W 073°55'0 0.1
2018-Feb-17 21:00N 40°56' W 073°55'0 0.0
2018-Feb-17 20:30N 40°56' W 073°55'0 0.0
2018-Feb-17 20:00N 40°56' W 073°55'0 0.0
2018-Feb-17 19:27N 40°56' W 073°55'0 0.2
2018-Feb-17 18:42N 40°56' W 073°55'0 0.4
2018-Feb-17 18:27N 40°56' W 073°55'0 0.3
2018-Feb-17 17:51N 40°56' W 073°55'0 0.0
2018-Feb-17 17:24N 40°56' W 073°55'0 0.1
2018-Feb-17 16:57N 40°56' W 073°55'0 0.0
2018-Feb-17 16:27N 40°56' W 073°55'0 0.0
2018-Feb-17 15:54N 40°56' W 073°55'0 0.0
2018-Feb-17 15:30N 40°56' W 073°55'0 0.0
2018-Feb-17 15:00N 40°56' W 073°55'0 0.2
2018-Feb-17 14:24N 40°56' W 073°55'0 0.2
2018-Feb-17 13:51N 40°56' W 073°55'0 0.0
2018-Feb-17 13:30N 40°56' W 073°55'0 0.0
2018-Feb-17 12:57N 40°56' W 073°55'0 0.2
2018-Feb-17 12:27N 40°56' W 073°55'0 0.3
2018-Feb-17 11:39N 40°56' W 073°55'0 0.1
2018-Feb-17 11:27N 40°56' W 073°55'0 0.0
2018-Feb-17 11:00N 40°56' W 073°55'0 0.0
2018-Feb-17 10:30N 40°56' W 073°55'0 0.0
2018-Feb-17 10:00N 40°56' W 073°55'0 0.0
2018-Feb-17 09:30N 40°56' W 073°55'0 0.1
2018-Feb-17 09:00N 40°56' W 073°55'0 0.0
2018-Feb-17 08:30N 40°56' W 073°55'0 0.0
2018-Feb-17 08:00N 40°56' W 073°55'0 0.0
2018-Feb-17 07:29N 40°56' W 073°55'0 0.0
2018-Feb-17 07:00N 40°56' W 073°55'0 0.0
2018-Feb-17 06:28N 40°56' W 073°55'0 0.0
2018-Feb-17 06:00N 40°56' W 073°55'0 0.0
2018-Feb-17 05:30N 40°56' W 073°55'0 0.0
2018-Feb-17 05:00N 40°56' W 073°55'0 0.3
2018-Feb-17 04:30N 40°56' W 073°55'0 0.2
2018-Feb-17 03:59N 40°56' W 073°55'0 0.1
2018-Feb-17 03:29N 40°56' W 073°55'0 0.0
2018-Feb-17 02:58N 40°56' W 073°55'0 0.1
2018-Feb-17 02:30N 40°56' W 073°55'0 0.1
2018-Feb-17 01:58N 40°56' W 073°55'0 0.2
2018-Feb-17 01:30N 40°56' W 073°55'0 0.5
2018-Feb-17 00:59N 40°56' W 073°55'4 7.4
2018-Feb-17 00:30N 40°52' W 073°56'611.5
2018-Feb-16 23:58N 40°47' W 073°60'510.9
2018-Feb-16 23:30N 40°42' W 074°02'4 8.4
2018-Feb-16 23:00N 40°39' W 074°05'5 9.3
2018-Feb-16 22:30N 40°38' W 074°11'4 7.9
2018-Feb-16 22:00N 40°35' W 074°13'3 0.1
2018-Feb-16 02:35N 40°33' W 074°15'0 0.0
2018-Feb-16 02:30N 40°33' W 074°15'1 1.8
2018-Feb-16 01:56N 40°33' W 074°14'3 7.1
2018-Feb-16 01:30N 40°36' W 074°12'3 5.9
2018-Feb-16 01:00N 40°39' W 074°11'3 6.1
2018-Feb-16 00:30N 40°39' W 074°07'3 5.3
2018-Feb-16 00:00N 40°38' W 074°03'1 1.9
2018-Feb-15 23:30N 40°37' W 074°03'0 0.1
2018-Feb-15 23:00N 40°37' W 074°03'0 0.2
2018-Feb-15 22:30N 40°37' W 074°03'0 0.3
2018-Feb-15 22:00N 40°37' W 074°03'0 0.1
2018-Feb-15 21:00N 40°37' W 074°03'0 0.0
2018-Feb-15 20:30N 40°37' W 074°03'0 0.0
2018-Feb-15 20:00N 40°37' W 074°03'0 0.1
2018-Feb-15 19:30N 40°37' W 074°03'0 0.1
2018-Feb-15 19:00N 40°37' W 074°03'0 0.0
2018-Feb-15 18:30N 40°37' W 074°03'0 0.0
2018-Feb-15 18:00N 40°37' W 074°03'0 0.0
2018-Feb-15 17:30N 40°37' W 074°03'0 0.0
2018-Feb-15 17:00N 40°37' W 074°03'0 0.0
2018-Feb-15 16:30N 40°37' W 074°03'0 0.0
2018-Feb-15 16:00N 40°37' W 074°03'0 0.0
2018-Feb-15 15:30N 40°37' W 074°03'0 0.3
2018-Feb-15 15:00N 40°37' W 074°03'0 0.2
2018-Feb-15 14:30N 40°37' W 074°03'0 0.0
2018-Feb-15 14:00N 40°37' W 074°03'0 0.1
2018-Feb-15 13:30N 40°37' W 074°03'0 0.0
2018-Feb-15 13:00N 40°37' W 074°03'0 0.0
2018-Feb-15 12:30N 40°37' W 074°03'0 0.0
2018-Feb-15 12:00N 40°37' W 074°03'  

Dump ship's entire track history